Harper Woods, Michigan
Current Conditions -  °F | °C
As of 3:53 AM on Saturday 01 Nov 2014 (Local Time) from KDET Reporting Station
Overcast Overcast  
Wind Chill: 27°   Ceiling: 1500
Heat Index: 37°   Visibility: 10mi
Dew Point: 30°   Wind: 17mph
Humidity: 76%   Direction: 360°N
Pressure: 30.15"   Gusts: 31mph
Location:  42.43°N, 82.92°W
Report Text: KDET 010753Z 36015G27KT 10SM OVC015 03/M01 A3015 RMK AO2 PK WND 01032/0730 SLP212 T00281011
Loading
Personal Weather Stations






























Interactive Weather Map
Tropical Storm Tracking
New forecast layout! Learn more

10-Day Weather Forecast

Advertisements
Track Severe Weather on mobile